EGPY weather

CLOSED Dounreay/Thurso Airport
Thurso, Scotland, United Kingdom

Public forecast

Using degrees Celsius for public forecast. Weather courtesy of forecast.io.

Closest aviation weather report (METAR) to Dounreay/Thurso Airport

Closest report is Wick Airport, 21.2 nm (39.3 km) ESE. Retrieved 2020/06/04 20:50 UTC (24 minutes ago):

EGPC 042050Z AUTO 34009KT 9999 -RA SCT028/// BKN033/// 07/04 Q0999

Closest aviation forecast (TAF) to Dounreay/Thurso Airport

Closest forecast is RAF Lossiemouth, 54.2 nm (100.3 km) SSE. Retrieved 2020/06/04 21:37 UTC (0 seconds ago):

TAF EGQS 041921Z 0421/0515 34010KT 9999 FEW020 SCT030 PROB30 TEMPO 0421/0506 -SHRA SCT020 PROB30 TEMPO 0500/0503 33015G25KT BECMG 0503/0506 32015G25KT TEMPO 0506/0515 6000 SHRA SCT020TCU BECMG 0509/0512 31022G35KT